createdAt,value
2022-09-15T00:02:08.495Z,99899.88
2022-09-15T00:05:13.033Z,99903.16
2022-09-15T00:08:15.903Z,99907.03
2022-09-15T00:11:21.223Z,99918.91
2022-09-15T00:14:25.497Z,99913.91
2022-09-15T00:17:29.297Z,99914.00
2022-09-15T00:20:31.868Z,99911.84
2022-09-15T00:23:34.840Z,99913.78
2022-09-15T00:26:37.655Z,99914.66
2022-09-15T00:29:41.682Z,99906.28
2022-09-15T00:32:44.214Z,99908.53
2022-09-15T00:35:49.445Z,99903.53
2022-09-15T00:38:52.238Z,99905.31
2022-09-15T00:41:54.984Z,99902.56
2022-09-15T00:45:01.874Z,99904.19
2022-09-15T00:48:05.537Z,99905.63
2022-09-15T00:51:09.845Z,99902.34
2022-09-15T00:54:17.240Z,99902.38
2022-09-15T00:57:24.169Z,99902.47
2022-09-15T01:00:29.370Z,99909.41
2022-09-15T01:03:34.280Z,99903.94
2022-09-15T01:06:40.081Z,99905.06
2022-09-15T01:09:49.451Z,99910.16
2022-09-15T01:12:53.405Z,99912.44
2022-09-15T01:16:14.005Z,99903.56
2022-09-15T01:19:40.647Z,99899.47
2022-09-15T01:22:55.269Z,99902.03
2022-09-15T01:26:37.834Z,99908.94
2022-09-15T01:29:53.262Z,99909.81
2022-09-15T01:33:09.862Z,99915.34
2022-09-15T01:36:18.316Z,99920.41
2022-09-15T01:39:26.257Z,99919.63
2022-09-15T01:42:30.560Z,99913.00
2022-09-15T01:45:35.780Z,99919.63
2022-09-15T01:48:39.463Z,99924.34
2022-09-15T01:51:44.890Z,99923.59
2022-09-15T01:54:51.393Z,99921.13
2022-09-15T01:57:54.125Z,99920.44
2022-09-15T02:01:01.717Z,99921.91
2022-09-15T02:04:09.842Z,99914.72
2022-09-15T02:07:21.535Z,99910.84
2022-09-15T02:10:32.799Z,99912.28
2022-09-15T02:13:45.162Z,99907.56
2022-09-15T02:16:53.719Z,99912.56
2022-09-15T02:20:04.189Z,99916.69
2022-09-15T02:23:10.757Z,99918.41
2022-09-15T02:26:18.288Z,99922.34
2022-09-15T02:29:22.943Z,99919.84
2022-09-15T02:32:29.653Z,99923.72
2022-09-15T02:35:35.935Z,99913.00
2022-09-15T02:38:44.514Z,99906.91
2022-09-15T02:41:47.304Z,99912.72
2022-09-15T02:44:50.013Z,99907.56
2022-09-15T02:47:53.943Z,99907.59
2022-09-15T02:50:56.610Z,99905.63
2022-09-15T02:53:59.215Z,99905.16
2022-09-15T02:57:01.921Z,99915.72
2022-09-15T03:00:16.256Z,99911.84
2022-09-15T03:03:21.954Z,99914.00
2022-09-15T03:06:25.622Z,99904.41
2022-09-15T03:09:28.225Z,99898.91
2022-09-15T03:12:30.810Z,99912.47
2022-09-15T03:15:33.373Z,99909.19
2022-09-15T03:18:37.677Z,99910.00
2022-09-15T03:21:40.363Z,99905.03
2022-09-15T03:24:43.190Z,99917.69
2022-09-15T03:27:46.137Z,99906.97
2022-09-15T03:30:48.821Z,99915.81
2022-09-15T03:33:56.295Z,99907.31
2022-09-15T03:36:58.867Z,99901.59
2022-09-15T03:40:01.622Z,99908.22
2022-09-15T03:43:04.263Z,99898.53
2022-09-15T03:46:09.062Z,99914.03
2022-09-15T03:49:13.442Z,99906.56
2022-09-15T03:52:16.122Z,99906.91
2022-09-15T03:55:18.807Z,99909.72
2022-09-15T03:58:21.397Z,99910.59
2022-09-15T04:01:24.758Z,99905.09
2022-09-15T04:04:28.823Z,99898.75
2022-09-15T04:07:31.506Z,99896.28
2022-09-15T04:10:34.991Z,99900.41
2022-09-15T04:13:38.779Z,99896.28
2022-09-15T04:16:41.415Z,99896.41
2022-09-15T04:19:45.712Z,99888.16
2022-09-15T04:22:48.422Z,99896.38
2022-09-15T04:25:57.959Z,99892.25
2022-09-15T04:29:04.467Z,99896.91
2022-09-15T04:32:07.869Z,99891.44
2022-09-15T04:35:12.244Z,99892.31
2022-09-15T04:38:14.842Z,99893.16
2022-09-15T04:41:18.643Z,99890.09
2022-09-15T04:44:21.615Z,99895.06
2022-09-15T04:47:24.171Z,99896.41
2022-09-15T04:50:28.294Z,99895.00
2022-09-15T04:53:31.126Z,99894.16
2022-09-15T04:56:34.013Z,99894.69
2022-09-15T04:59:36.849Z,99894.63
2022-09-15T05:02:39.549Z,99892.69
2022-09-15T05:05:43.469Z,99897.66
2022-09-15T05:08:48.380Z,99886.94
2022-09-15T05:11:50.930Z,99891.03
2022-09-15T05:14:53.631Z,99885.16
2022-09-15T05:17:56.198Z,99889.53
2022-09-15T05:21:01.276Z,99891.63
2022-09-15T05:24:03.870Z,99886.53
2022-09-15T05:27:06.918Z,99889.63
2022-09-15T05:30:35.972Z,99894.13
2022-09-15T05:33:33.541Z,99896.06
2022-09-15T05:36:37.599Z,99892.16
2022-09-15T05:39:41.031Z,99894.03
2022-09-15T05:42:43.737Z,99908.03
2022-09-15T05:45:54.971Z,99906.63
2022-09-15T05:48:59.897Z,99915.06
2022-09-15T05:52:04.302Z,99916.97
2022-09-15T05:55:07.336Z,99923.78
2022-09-15T05:58:10.016Z,99922.44
2022-09-15T06:01:15.594Z,99918.88
2022-09-15T06:04:18.206Z,99917.38
2022-09-15T06:07:22.264Z,99920.25
2022-09-15T06:10:25.220Z,99912.16
2022-09-15T06:13:27.906Z,99914.53
2022-09-15T06:16:33.865Z,99913.97
2022-09-15T06:19:36.687Z,99922.75
2022-09-15T06:22:40.915Z,99926.72
2022-09-15T06:25:43.649Z,99914.22
2022-09-15T06:28:50.147Z,99917.88
2022-09-15T06:31:52.869Z,99923.75
2022-09-15T06:34:55.464Z,99914.53
2022-09-15T06:37:59.515Z,99913.72
2022-09-15T06:41:02.081Z,99916.19
2022-09-15T06:44:04.783Z,99923.97
2022-09-15T06:47:07.565Z,99920.75
2022-09-15T06:50:10.692Z,99934.47
2022-09-15T06:53:15.156Z,99919.22
2022-09-15T06:56:19.999Z,99930.34
2022-09-15T06:59:24.033Z,99939.09
2022-09-15T07:02:26.757Z,99947.88
2022-09-15T07:05:30.666Z,99942.44
2022-09-15T07:08:34.841Z,99947.25
2022-09-15T07:11:37.715Z,99945.72
2022-09-15T07:14:40.259Z,99955.53
2022-09-15T07:17:42.958Z,99954.91
2022-09-15T07:20:45.575Z,99953.09
2022-09-15T07:23:50.094Z,99954.06
2022-09-15T07:26:52.990Z,99954.88
2022-09-15T07:29:55.646Z,99959.78
2022-09-15T07:32:58.202Z,99957.31
2022-09-15T07:36:01.980Z,99972.28
2022-09-15T07:39:07.017Z,99964.78
2022-09-15T07:42:09.736Z,99966.09
2022-09-15T07:45:12.832Z,99967.84
2022-09-15T07:48:15.526Z,99968.25
2022-09-15T07:51:18.632Z,99969.44
2022-09-15T07:54:23.138Z,99974.66
2022-09-15T07:57:26.807Z,99973.53
2022-09-15T08:00:29.616Z,99966.31
2022-09-15T08:03:32.392Z,99970.44
2022-09-15T08:06:36.361Z,99973.72
2022-09-15T08:09:41.515Z,99973.88
2022-09-15T08:12:44.373Z,99977.31
2022-09-15T08:15:47.142Z,99976.00
2022-09-15T08:18:51.213Z,99972.53
2022-09-15T08:21:53.849Z,99973.75
2022-09-15T08:24:57.888Z,99973.59
2022-09-15T08:28:00.550Z,99979.59
2022-09-15T08:31:05.476Z,99980.00
2022-09-15T08:34:08.283Z,99972.19
2022-09-15T08:37:10.892Z,99984.75
2022-09-15T08:40:18.543Z,99978.88
2022-09-15T08:43:26.646Z,99981.75
2022-09-15T08:46:36.104Z,99989.31
2022-09-15T08:49:52.008Z,99990.44
2022-09-15T08:53:01.526Z,99993.19
2022-09-15T08:56:14.884Z,99977.59
2022-09-15T08:59:18.784Z,99977.91
2022-09-15T09:02:56.041Z,99974.75
2022-09-15T09:06:01.966Z,99974.78
2022-09-15T09:09:13.504Z,99968.81
2022-09-15T09:12:37.085Z,99968.34
2022-09-15T09:15:54.166Z,99964.91
2022-09-15T09:19:32.252Z,99974.41
2022-09-15T09:22:39.185Z,99965.78
2022-09-15T09:25:42.814Z,99970.16
2022-09-15T09:28:55.277Z,99977.63
2022-09-15T09:32:00.044Z,99979.03
2022-09-15T09:35:06.246Z,99974.19
2022-09-15T09:38:10.406Z,99968.06
2022-09-15T09:41:16.105Z,99972.59
2022-09-15T09:44:20.503Z,99975.22
2022-09-15T09:47:28.190Z,99965.84
2022-09-15T09:50:36.525Z,99973.78
2022-09-15T09:53:39.159Z,99962.28
2022-09-15T09:56:41.902Z,99975.28
2022-09-15T09:59:47.341Z,99965.50
2022-09-15T10:02:50.328Z,99959.53
2022-09-15T10:06:04.982Z,99970.78
2022-09-15T10:09:14.447Z,99976.44
2022-09-15T10:12:35.393Z,99968.94
2022-09-15T10:18:41.945Z,99975.41
2022-09-15T10:21:44.502Z,99973.09
2022-09-15T10:24:47.376Z,99967.53
2022-09-15T10:28:11.843Z,99977.63
2022-09-15T10:31:29.741Z,99980.69
2022-09-15T10:34:33.017Z,99969.63
2022-09-15T10:37:41.584Z,99973.53
2022-09-15T10:40:53.008Z,99966.03
2022-09-15T10:44:26.843Z,99974.56
2022-09-15T10:47:43.573Z,99971.66
2022-09-15T10:50:55.832Z,99967.72
2022-09-15T10:54:11.653Z,99973.44
2022-09-15T11:00:41.602Z,99973.03
2022-09-15T11:04:08.921Z,99972.63
2022-09-15T11:07:17.669Z,99965.88
2022-09-15T11:10:27.004Z,99970.06
2022-09-15T11:13:39.776Z,99966.25
2022-09-15T11:16:56.460Z,99966.97
2022-09-15T11:20:13.338Z,99961.09
2022-09-15T11:23:21.461Z,99973.09
2022-09-15T11:26:31.782Z,99970.09
2022-09-15T11:29:53.427Z,99969.84
2022-09-15T11:33:02.300Z,99966.59
2022-09-15T11:36:14.504Z,99969.25
2022-09-15T11:39:24.035Z,99976.50
2022-09-15T11:42:34.326Z,99980.91
2022-09-15T11:45:45.310Z,99981.91
2022-09-15T11:48:56.371Z,99983.88
2022-09-15T11:52:07.417Z,99985.13
2022-09-15T11:55:19.724Z,99985.16
2022-09-15T11:58:29.500Z,99990.13
2022-09-15T12:01:38.366Z,99983.97
2022-09-15T12:04:48.983Z,99976.09
2022-09-15T12:07:59.429Z,99968.47
2022-09-15T12:11:07.348Z,99965.28
2022-09-15T12:14:15.344Z,99957.75
2022-09-15T12:17:27.562Z,99961.50
2022-09-15T12:20:36.938Z,99958.91
2022-09-15T12:23:44.049Z,99954.38
2022-09-15T12:26:47.573Z,99951.47
2022-09-15T12:29:51.180Z,99945.63
2022-09-15T12:32:57.742Z,99950.59
2022-09-15T12:36:45.790Z,99952.94
2022-09-15T12:39:50.188Z,99963.06
2022-09-15T12:42:53.122Z,99975.66
2022-09-15T12:45:58.234Z,99980.28
2022-09-15T12:49:03.348Z,99970.56
2022-09-15T12:52:08.472Z,99966.91
2022-09-15T12:55:20.195Z,99960.72
2022-09-15T12:58:30.283Z,99949.97
2022-09-15T13:01:46.722Z,99954.13
2022-09-15T13:04:55.419Z,99958.19
2022-09-15T13:07:58.776Z,99957.22
2022-09-15T13:11:05.949Z,99949.94
2022-09-15T13:14:27.930Z,99960.44
2022-09-15T13:17:31.847Z,99962.44
2022-09-15T13:20:39.387Z,99952.41
2022-09-15T13:23:45.787Z,99958.91
2022-09-15T13:26:57.602Z,99952.09
2022-09-15T13:30:11.193Z,99948.69
2022-09-15T13:40:52.949Z,99949.09
2022-09-15T13:44:25.427Z,99939.41
2022-09-15T13:47:38.990Z,99933.19
2022-09-15T13:50:44.126Z,99936.56
2022-09-15T13:53:50.763Z,99935.06
2022-09-15T13:56:53.594Z,99929.22
2022-09-15T13:59:56.247Z,99922.34
2022-09-15T14:03:03.244Z,99929.63
2022-09-15T14:06:13.928Z,99927.38
2022-09-15T14:09:19.900Z,99917.69
2022-09-15T14:12:22.704Z,99917.63
2022-09-15T14:15:26.875Z,99913.13
2022-09-15T14:18:43.418Z,99908.25
2022-09-15T14:21:49.150Z,99916.84
2022-09-15T14:24:52.163Z,99914.72
2022-09-15T14:27:56.544Z,99911.41
2022-09-15T14:30:59.690Z,99925.72
2022-09-15T14:34:06.919Z,99923.13
2022-09-15T14:37:19.813Z,99930.41
2022-09-15T14:40:29.082Z,99929.47
2022-09-15T14:43:35.475Z,99932.91
2022-09-15T14:46:38.549Z,99939.75
2022-09-15T14:49:42.484Z,99930.78
2022-09-15T14:52:51.343Z,99935.00
2022-09-15T14:55:58.204Z,99929.78
2022-09-15T14:59:05.885Z,99937.81
2022-09-15T15:02:22.495Z,99929.00
2022-09-15T15:05:31.580Z,99931.78
2022-09-15T15:08:38.723Z,99926.22
2022-09-15T15:11:43.183Z,99930.47
2022-09-15T15:14:46.012Z,99946.94
2022-09-15T15:17:50.952Z,99944.97
2022-09-15T15:20:54.881Z,99950.84
2022-09-15T15:23:57.692Z,99944.97
2022-09-15T15:27:27.373Z,99954.88
2022-09-15T15:30:44.704Z,99959.91
2022-09-15T15:33:49.549Z,99960.34
2022-09-15T15:37:03.283Z,99958.53
2022-09-15T15:40:14.873Z,99961.72
2022-09-15T15:43:24.150Z,99971.06
2022-09-15T15:46:45.972Z,99969.19
2022-09-15T15:50:11.684Z,99963.28
2022-09-15T15:53:12.576Z,99975.34
2022-09-15T15:56:15.181Z,99984.41
2022-09-15T15:59:18.442Z,99968.13
2022-09-15T16:02:21.364Z,99966.59
2022-09-15T16:05:27.847Z,99971.84
2022-09-15T16:08:34.261Z,99966.88
2022-09-15T16:11:36.859Z,99972.75
2022-09-15T16:14:39.472Z,99960.88
2022-09-15T16:17:46.011Z,99975.31
2022-09-15T16:20:49.884Z,99969.91
2022-09-15T16:23:54.269Z,99973.00
2022-09-15T16:26:56.846Z,99968.63
2022-09-15T16:29:59.401Z,99964.00
2022-09-15T16:33:02.247Z,99975.53
2022-09-15T16:36:06.982Z,99970.72
2022-09-15T16:39:11.161Z,99988.78
2022-09-15T16:42:13.749Z,99980.34
2022-09-15T16:45:23.859Z,99978.66
2022-09-15T16:48:27.222Z,99982.81
2022-09-15T16:51:31.551Z,99982.19
2022-09-15T16:54:35.885Z,99979.59
2022-09-15T16:57:38.431Z,99986.59
2022-09-15T17:00:41.300Z,99977.69
2022-09-15T17:03:44.137Z,99974.13
2022-09-15T17:06:47.026Z,99967.66
2022-09-15T17:09:52.861Z,99966.41
2022-09-15T17:12:55.549Z,99970.94
2022-09-15T17:15:59.200Z,99983.75
2022-09-15T17:19:01.925Z,99967.84
2022-09-15T17:22:04.683Z,99967.34
2022-09-15T17:25:20.274Z,99974.00
2022-09-15T17:28:25.175Z,99985.16
2022-09-15T17:31:28.084Z,99982.41
2022-09-15T17:34:30.923Z,99982.19
2022-09-15T17:37:33.732Z,99969.72
2022-09-15T17:40:38.006Z,99976.88
2022-09-15T17:43:40.716Z,99983.13
2022-09-15T17:46:43.335Z,99999.09
2022-09-15T17:49:46.086Z,99997.16
2022-09-15T17:52:49.153Z,100002.25
2022-09-15T17:55:54.516Z,100004.78
2022-09-15T17:58:57.239Z,100004.63
2022-09-15T18:01:59.848Z,99997.84
2022-09-15T18:05:02.783Z,99989.78
2022-09-15T18:08:06.868Z,99998.22
2022-09-15T18:11:14.957Z,100006.06
2022-09-15T18:14:17.652Z,99998.41
2022-09-15T18:17:20.244Z,100002.50
2022-09-15T18:20:24.659Z,100010.56
2022-09-15T18:23:29.707Z,100015.66
2022-09-15T18:26:33.841Z,100025.06
2022-09-15T18:29:36.551Z,100017.88
2022-09-15T18:32:39.473Z,100017.66
2022-09-15T18:35:42.526Z,100020.84
2022-09-15T18:38:45.128Z,100029.00
2022-09-15T18:44:57.470Z,100033.94
2022-09-15T18:48:00.184Z,100028.84
2022-09-15T18:51:02.787Z,100017.53
2022-09-15T18:54:05.703Z,100021.56
2022-09-15T18:57:09.816Z,100026.56
2022-09-15T19:00:15.394Z,100029.53
2022-09-15T19:03:18.422Z,100025.94
2022-09-15T19:06:21.073Z,100027.84
2022-09-15T19:09:23.666Z,100030.53
2022-09-15T19:12:27.794Z,100034.53
2022-09-15T19:15:33.783Z,100034.84
2022-09-15T19:18:37.163Z,100028.75
2022-09-15T19:21:39.932Z,100025.03
2022-09-15T19:24:42.791Z,100024.94
2022-09-15T19:27:47.999Z,100018.22
2022-09-15T19:30:50.666Z,100013.81
2022-09-15T19:33:53.766Z,100027.22
2022-09-15T19:36:56.887Z,100022.94
2022-09-15T19:39:59.722Z,100024.78
2022-09-15T19:43:03.960Z,100021.56
2022-09-15T19:46:12.812Z,100027.03
2022-09-15T19:49:15.982Z,100024.78
2022-09-15T19:52:18.676Z,100030.09
2022-09-15T19:55:21.736Z,100032.16
2022-09-15T19:58:26.024Z,100040.31
2022-09-15T20:01:30.470Z,100028.66
2022-09-15T20:04:33.641Z,100031.50
2022-09-15T20:07:36.310Z,100034.03
2022-09-15T20:10:40.370Z,100036.47
2022-09-15T20:13:44.894Z,100033.34
2022-09-15T20:16:47.644Z,100048.38
2022-09-15T20:19:50.424Z,100051.56
2022-09-15T20:22:54.418Z,100045.81
2022-09-15T20:25:58.478Z,100051.88
2022-09-15T20:29:03.875Z,100058.59
2022-09-15T20:32:06.678Z,100059.84
2022-09-15T20:35:10.235Z,100058.13
2022-09-15T20:38:12.913Z,100060.66
2022-09-15T20:41:18.102Z,100065.44
2022-09-15T20:44:22.024Z,100056.69
2022-09-15T20:47:24.937Z,100057.06
2022-09-15T20:50:27.721Z,100056.13
2022-09-15T20:53:30.447Z,100054.22
2022-09-15T20:56:35.593Z,100062.88
2022-09-15T20:59:39.586Z,100053.50
2022-09-15T21:02:42.475Z,100059.34
2022-09-15T21:05:45.469Z,100060.16
2022-09-15T21:08:48.907Z,100066.56
2022-09-15T21:11:53.646Z,100063.50
2022-09-15T21:14:57.855Z,100063.00
2022-09-15T21:18:00.508Z,100056.44
2022-09-15T21:21:05.528Z,100062.78
2022-09-15T21:24:09.741Z,100064.44
2022-09-15T21:27:27.962Z,100069.41
2022-09-15T21:30:31.935Z,100064.63
2022-09-15T21:33:35.076Z,100059.31
2022-09-15T21:36:37.767Z,100059.53
2022-09-15T21:39:40.411Z,100059.75
2022-09-15T21:42:43.143Z,100069.31
2022-09-15T21:45:47.128Z,100061.69
2022-09-15T21:48:50.742Z,100068.97
2022-09-15T21:51:53.289Z,100078.41
2022-09-15T21:54:55.991Z,100080.56
2022-09-15T21:57:58.673Z,100082.47
2022-09-15T22:01:10.748Z,100087.69
2022-09-15T22:04:13.494Z,100079.56
2022-09-15T22:07:19.326Z,100079.56
2022-09-15T22:10:22.025Z,100086.19
2022-09-15T22:13:24.623Z,100095.16
2022-09-15T22:16:28.731Z,100097.94
2022-09-15T22:19:31.479Z,100100.66
2022-09-15T22:22:44.223Z,100101.75
2022-09-15T22:25:46.894Z,100099.63
2022-09-15T22:28:50.010Z,100109.53
2022-09-15T22:31:54.080Z,100101.31
2022-09-15T22:34:57.115Z,100104.75
2022-09-15T22:37:59.683Z,100103.81
2022-09-15T22:41:05.469Z,100105.56
2022-09-15T22:44:17.677Z,100110.03
2022-09-15T22:47:21.742Z,100096.50
2022-09-15T22:50:24.432Z,100107.28
2022-09-15T22:53:27.485Z,100109.78
2022-09-15T22:56:30.820Z,100113.44
2022-09-15T22:59:33.369Z,100110.09
2022-09-15T23:02:37.455Z,100105.38
2022-09-15T23:05:40.217Z,100108.41
2022-09-15T23:08:42.823Z,100104.47
2022-09-15T23:11:45.433Z,100100.88
2022-09-15T23:14:48.034Z,100114.97
2022-09-15T23:17:52.221Z,100106.13
2022-09-15T23:20:59.021Z,100103.06
2022-09-15T23:24:01.889Z,100101.25
2022-09-15T23:27:05.133Z,100094.91
2022-09-15T23:30:09.036Z,100109.00
2022-09-15T23:33:12.956Z,100113.38
2022-09-15T23:36:19.476Z,100106.31
2022-09-15T23:39:22.537Z,100102.50
2022-09-15T23:42:25.237Z,100109.38
2022-09-15T23:45:27.787Z,100109.38
2022-09-15T23:48:32.691Z,100113.69
2022-09-15T23:51:35.603Z,100112.41
2022-09-15T23:54:38.272Z,100109.06
2022-09-15T23:57:41.003Z,100111.28
